sensor_id;sensor_type;location;lat;lon;timestamp;P1;durP1;ratioP1;P2;durP2;ratioP2
40827;SDS011;26549;50.918;5.338;2023-04-10T00:02:18;5.43;;;4.18;;
40827;SDS011;26549;50.918;5.338;2023-04-10T00:04:45;5.35;;;3.83;;
40827;SDS011;26549;50.918;5.338;2023-04-10T00:07:11;7.35;;;4.18;;
40827;SDS011;26549;50.918;5.338;2023-04-10T00:09:36;7.35;;;4.80;;
40827;SDS011;26549;50.918;5.338;2023-04-10T00:12:02;5.75;;;3.83;;
40827;SDS011;26549;50.918;5.338;2023-04-10T00:14:28;5.72;;;4.32;;
40827;SDS011;26549;50.918;5.338;2023-04-10T00:16:54;5.43;;;3.72;;
40827;SDS011;26549;50.918;5.338;2023-04-10T00:19:20;6.55;;;4.00;;
40827;SDS011;26549;50.918;5.338;2023-04-10T00:21:45;6.22;;;4.47;;
40827;SDS011;26549;50.918;5.338;2023-04-10T00:24:11;4.72;;;3.85;;
40827;SDS011;26549;50.918;5.338;2023-04-10T00:26:37;5.10;;;3.72;;
40827;SDS011;26549;50.918;5.338;2023-04-10T00:29:03;6.38;;;4.50;;
40827;SDS011;26549;50.918;5.338;2023-04-10T00:31:29;7.07;;;4.47;;
40827;SDS011;26549;50.918;5.338;2023-04-10T00:33:55;6.40;;;4.38;;
40827;SDS011;26549;50.918;5.338;2023-04-10T00:36:21;5.60;;;4.25;;
40827;SDS011;26549;50.918;5.338;2023-04-10T00:38:47;5.80;;;4.22;;
40827;SDS011;26549;50.918;5.338;2023-04-10T00:41:14;6.75;;;4.43;;
40827;SDS011;26549;50.918;5.338;2023-04-10T00:43:41;4.78;;;3.78;;
40827;SDS011;26549;50.918;5.338;2023-04-10T00:46:07;4.85;;;4.10;;
40827;SDS011;26549;50.918;5.338;2023-04-10T00:48:33;5.47;;;4.60;;
40827;SDS011;26549;50.918;5.338;2023-04-10T00:51:00;5.95;;;4.35;;
40827;SDS011;26549;50.918;5.338;2023-04-10T00:53:26;4.95;;;3.67;;
40827;SDS011;26549;50.918;5.338;2023-04-10T00:55:52;5.00;;;3.80;;
40827;SDS011;26549;50.918;5.338;2023-04-10T00:58:19;4.57;;;3.28;;
40827;SDS011;26549;50.918;5.338;2023-04-10T01:00:46;5.97;;;4.22;;
40827;SDS011;26549;50.918;5.338;2023-04-10T01:03:13;6.35;;;4.25;;
40827;SDS011;26549;50.918;5.338;2023-04-10T01:05:46;4.90;;;3.72;;
40827;SDS011;26549;50.918;5.338;2023-04-10T01:11:00;6.18;;;3.67;;
40827;SDS011;26549;50.918;5.338;2023-04-10T01:13:46;4.93;;;3.45;;
40827;SDS011;26549;50.918;5.338;2023-04-10T01:16:27;4.70;;;3.58;;
40827;SDS011;26549;50.918;5.338;2023-04-10T01:18:59;5.93;;;3.78;;
40827;SDS011;26549;50.918;5.338;2023-04-10T01:21:30;5.88;;;3.35;;
40827;SDS011;26549;50.918;5.338;2023-04-10T01:24:10;6.85;;;4.32;;
40827;SDS011;26549;50.918;5.338;2023-04-10T01:27:11;6.63;;;4.10;;
40827;SDS011;26549;50.918;5.338;2023-04-10T01:29:41;4.55;;;3.58;;
40827;SDS011;26549;50.918;5.338;2023-04-10T01:32:12;4.57;;;3.53;;
40827;SDS011;26549;50.918;5.338;2023-04-10T01:34:48;5.03;;;3.80;;
40827;SDS011;26549;50.918;5.338;2023-04-10T01:37:24;5.53;;;4.32;;
40827;SDS011;26549;50.918;5.338;2023-04-10T01:40:03;5.43;;;3.60;;
40827;SDS011;26549;50.918;5.338;2023-04-10T01:42:34;7.75;;;4.65;;
40827;SDS011;26549;50.918;5.338;2023-04-10T01:45:05;4.18;;;3.78;;
40827;SDS011;26549;50.918;5.338;2023-04-10T01:47:36;4.13;;;3.47;;
40827;SDS011;26549;50.918;5.338;2023-04-10T01:50:02;5.78;;;3.70;;
40827;SDS011;26549;50.918;5.338;2023-04-10T01:52:29;5.18;;;4.00;;
40827;SDS011;26549;50.918;5.338;2023-04-10T01:54:56;3.45;;;3.10;;
40827;SDS011;26549;50.918;5.338;2023-04-10T01:57:22;8.23;;;3.55;;
40827;SDS011;26549;50.918;5.338;2023-04-10T01:59:49;5.03;;;3.80;;
40827;SDS011;26549;50.918;5.338;2023-04-10T02:02:15;4.65;;;3.53;;
40827;SDS011;26549;50.918;5.338;2023-04-10T02:04:41;5.32;;;3.78;;
40827;SDS011;26549;50.918;5.338;2023-04-10T02:07:15;5.20;;;3.22;;
40827;SDS011;26549;50.918;5.338;2023-04-10T02:10:14;4.60;;;3.60;;
40827;SDS011;26549;50.918;5.338;2023-04-10T02:12:58;4.63;;;3.65;;
40827;SDS011;26549;50.918;5.338;2023-04-10T02:15:29;6.35;;;4.00;;
40827;SDS011;26549;50.918;5.338;2023-04-10T02:17:57;6.18;;;4.15;;
40827;SDS011;26549;50.918;5.338;2023-04-10T02:20:25;5.20;;;3.88;;
40827;SDS011;26549;50.918;5.338;2023-04-10T02:22:51;5.45;;;3.75;;
40827;SDS011;26549;50.918;5.338;2023-04-10T02:25:18;4.30;;;3.58;;
40827;SDS011;26549;50.918;5.338;2023-04-10T02:27:44;4.95;;;3.75;;
40827;SDS011;26549;50.918;5.338;2023-04-10T02:30:10;5.57;;;3.88;;
40827;SDS011;26549;50.918;5.338;2023-04-10T02:32:36;4.53;;;3.67;;
40827;SDS011;26549;50.918;5.338;2023-04-10T02:35:02;4.70;;;3.80;;
40827;SDS011;26549;50.918;5.338;2023-04-10T02:37:28;5.28;;;3.67;;
40827;SDS011;26549;50.918;5.338;2023-04-10T02:39:54;6.05;;;4.13;;
40827;SDS011;26549;50.918;5.338;2023-04-10T02:42:20;5.82;;;4.60;;
40827;SDS011;26549;50.918;5.338;2023-04-10T02:44:46;6.30;;;3.90;;
40827;SDS011;26549;50.918;5.338;2023-04-10T02:47:12;5.75;;;3.85;;
40827;SDS011;26549;50.918;5.338;2023-04-10T02:49:38;7.35;;;4.80;;
40827;SDS011;26549;50.918;5.338;2023-04-10T02:52:03;5.18;;;3.75;;
40827;SDS011;26549;50.918;5.338;2023-04-10T02:54:30;6.57;;;4.60;;
40827;SDS011;26549;50.918;5.338;2023-04-10T02:56:56;4.68;;;3.28;;
40827;SDS011;26549;50.918;5.338;2023-04-10T02:59:22;5.38;;;3.78;;
40827;SDS011;26549;50.918;5.338;2023-04-10T03:01:47;5.00;;;3.80;;
40827;SDS011;26549;50.918;5.338;2023-04-10T03:04:14;6.15;;;3.88;;
40827;SDS011;26549;50.918;5.338;2023-04-10T03:06:40;4.70;;;3.55;;
40827;SDS011;26549;50.918;5.338;2023-04-10T03:09:06;5.63;;;4.00;;
40827;SDS011;26549;50.918;5.338;2023-04-10T03:11:31;5.78;;;3.70;;
40827;SDS011;26549;50.918;5.338;2023-04-10T03:13:58;5.80;;;3.83;;
40827;SDS011;26549;50.918;5.338;2023-04-10T03:16:24;5.82;;;4.00;;
40827;SDS011;26549;50.918;5.338;2023-04-10T03:18:51;4.95;;;4.00;;
40827;SDS011;26549;50.918;5.338;2023-04-10T03:21:17;5.75;;;4.40;;
40827;SDS011;26549;50.918;5.338;2023-04-10T03:23:43;5.47;;;3.65;;
40827;SDS011;26549;50.918;5.338;2023-04-10T03:26:09;4.13;;;3.55;;
40827;SDS011;26549;50.918;5.338;2023-04-10T03:28:34;5.82;;;3.40;;
40827;SDS011;26549;50.918;5.338;2023-04-10T03:31:01;6.00;;;4.30;;
40827;SDS011;26549;50.918;5.338;2023-04-10T03:33:27;5.55;;;3.90;;
40827;SDS011;26549;50.918;5.338;2023-04-10T03:35:53;6.13;;;4.75;;
40827;SDS011;26549;50.918;5.338;2023-04-10T03:38:19;4.65;;;3.45;;
40827;SDS011;26549;50.918;5.338;2023-04-10T03:40:45;6.97;;;4.25;;
40827;SDS011;26549;50.918;5.338;2023-04-10T03:43:10;5.32;;;4.07;;
40827;SDS011;26549;50.918;5.338;2023-04-10T03:45:36;6.07;;;4.40;;
40827;SDS011;26549;50.918;5.338;2023-04-10T03:48:02;6.00;;;4.20;;
40827;SDS011;26549;50.918;5.338;2023-04-10T03:50:28;6.53;;;4.63;;
40827;SDS011;26549;50.918;5.338;2023-04-10T03:52:53;6.35;;;4.57;;
40827;SDS011;26549;50.918;5.338;2023-04-10T03:55:19;6.15;;;4.68;;
40827;SDS011;26549;50.918;5.338;2023-04-10T03:57:45;8.40;;;4.28;;
40827;SDS011;26549;50.918;5.338;2023-04-10T04:00:15;7.38;;;4.80;;
40827;SDS011;26549;50.918;5.338;2023-04-10T04:02:41;8.43;;;4.68;;
40827;SDS011;26549;50.918;5.338;2023-04-10T04:05:07;5.85;;;4.50;;
40827;SDS011;26549;50.918;5.338;2023-04-10T04:07:33;6.90;;;4.65;;
40827;SDS011;26549;50.918;5.338;2023-04-10T04:10:00;5.88;;;4.60;;
40827;SDS011;26549;50.918;5.338;2023-04-10T04:12:26;5.35;;;4.20;;
40827;SDS011;26549;50.918;5.338;2023-04-10T04:14:52;7.47;;;4.88;;
40827;SDS011;26549;50.918;5.338;2023-04-10T04:17:18;6.50;;;4.43;;
40827;SDS011;26549;50.918;5.338;2023-04-10T04:19:43;7.60;;;4.40;;
40827;SDS011;26549;50.918;5.338;2023-04-10T04:22:10;6.55;;;5.05;;
40827;SDS011;26549;50.918;5.338;2023-04-10T04:24:35;6.82;;;4.30;;
40827;SDS011;26549;50.918;5.338;2023-04-10T04:27:01;6.60;;;4.70;;
40827;SDS011;26549;50.918;5.338;2023-04-10T04:29:27;7.85;;;5.13;;
40827;SDS011;26549;50.918;5.338;2023-04-10T04:31:53;7.32;;;4.53;;
40827;SDS011;26549;50.918;5.338;2023-04-10T04:34:19;6.65;;;4.53;;
40827;SDS011;26549;50.918;5.338;2023-04-10T04:36:44;7.68;;;4.93;;
40827;SDS011;26549;50.918;5.338;2023-04-10T04:39:10;10.15;;;5.32;;
40827;SDS011;26549;50.918;5.338;2023-04-10T04:41:36;6.47;;;4.22;;
40827;SDS011;26549;50.918;5.338;2023-04-10T04:44:04;5.53;;;4.50;;
40827;SDS011;26549;50.918;5.338;2023-04-10T04:46:30;6.00;;;4.70;;
40827;SDS011;26549;50.918;5.338;2023-04-10T04:48:56;6.88;;;4.78;;
40827;SDS011;26549;50.918;5.338;2023-04-10T04:51:22;6.57;;;4.40;;
40827;SDS011;26549;50.918;5.338;2023-04-10T04:53:48;8.15;;;4.25;;
40827;SDS011;26549;50.918;5.338;2023-04-10T04:56:14;5.88;;;4.43;;
40827;SDS011;26549;50.918;5.338;2023-04-10T04:58:39;5.05;;;4.05;;
40827;SDS011;26549;50.918;5.338;2023-04-10T05:01:06;8.00;;;4.80;;
40827;SDS011;26549;50.918;5.338;2023-04-10T05:03:32;5.32;;;4.13;;
40827;SDS011;26549;50.918;5.338;2023-04-10T05:05:58;6.20;;;4.40;;
40827;SDS011;26549;50.918;5.338;2023-04-10T05:08:23;6.63;;;5.22;;
40827;SDS011;26549;50.918;5.338;2023-04-10T05:10:49;7.07;;;4.93;;
40827;SDS011;26549;50.918;5.338;2023-04-10T05:13:15;7.03;;;5.25;;
40827;SDS011;26549;50.918;5.338;2023-04-10T05:15:43;5.55;;;4.35;;
40827;SDS011;26549;50.918;5.338;2023-04-10T05:18:09;7.03;;;4.78;;
40827;SDS011;26549;50.918;5.338;2023-04-10T05:20:35;6.72;;;4.60;;
40827;SDS011;26549;50.918;5.338;2023-04-10T05:23:01;8.00;;;4.82;;
40827;SDS011;26549;50.918;5.338;2023-04-10T05:25:28;7.30;;;4.78;;
40827;SDS011;26549;50.918;5.338;2023-04-10T05:27:54;5.57;;;4.40;;
40827;SDS011;26549;50.918;5.338;2023-04-10T05:30:20;6.32;;;4.65;;
40827;SDS011;26549;50.918;5.338;2023-04-10T05:32:46;5.20;;;4.22;;
40827;SDS011;26549;50.918;5.338;2023-04-10T05:35:11;5.97;;;4.38;;
40827;SDS011;26549;50.918;5.338;2023-04-10T05:37:38;6.03;;;4.40;;
40827;SDS011;26549;50.918;5.338;2023-04-10T05:40:04;5.68;;;4.40;;
40827;SDS011;26549;50.918;5.338;2023-04-10T05:42:30;6.35;;;4.20;;
40827;SDS011;26549;50.918;5.338;2023-04-10T05:44:56;4.47;;;3.55;;
40827;SDS011;26549;50.918;5.338;2023-04-10T05:47:21;7.03;;;4.90;;
40827;SDS011;26549;50.918;5.338;2023-04-10T05:49:47;6.15;;;4.40;;
40827;SDS011;26549;50.918;5.338;2023-04-10T05:52:13;6.20;;;4.72;;
40827;SDS011;26549;50.918;5.338;2023-04-10T05:54:39;6.47;;;4.60;;
40827;SDS011;26549;50.918;5.338;2023-04-10T05:57:05;4.97;;;4.25;;
40827;SDS011;26549;50.918;5.338;2023-04-10T05:59:30;5.80;;;3.78;;
40827;SDS011;26549;50.918;5.338;2023-04-10T06:01:56;5.43;;;4.05;;
40827;SDS011;26549;50.918;5.338;2023-04-10T06:04:22;6.57;;;4.35;;
40827;SDS011;26549;50.918;5.338;2023-04-10T06:06:48;5.55;;;3.78;;
40827;SDS011;26549;50.918;5.338;2023-04-10T06:09:14;5.80;;;4.47;;
40827;SDS011;26549;50.918;5.338;2023-04-10T06:11:39;5.35;;;4.00;;
40827;SDS011;26549;50.918;5.338;2023-04-10T06:14:05;4.13;;;3.38;;
40827;SDS011;26549;50.918;5.338;2023-04-10T06:16:31;4.78;;;3.78;;
40827;SDS011;26549;50.918;5.338;2023-04-10T06:18:57;5.40;;;3.83;;
40827;SDS011;26549;50.918;5.338;2023-04-10T06:21:22;5.43;;;4.20;;
40827;SDS011;26549;50.918;5.338;2023-04-10T06:23:48;5.88;;;4.07;;
40827;SDS011;26549;50.918;5.338;2023-04-10T06:26:15;5.13;;;3.90;;
40827;SDS011;26549;50.918;5.338;2023-04-10T06:28:41;4.95;;;4.10;;
40827;SDS011;26549;50.918;5.338;2023-04-10T06:31:06;4.95;;;3.65;;
40827;SDS011;26549;50.918;5.338;2023-04-10T06:33:32;7.18;;;4.45;;
40827;SDS011;26549;50.918;5.338;2023-04-10T06:36:00;4.70;;;3.70;;
40827;SDS011;26549;50.918;5.338;2023-04-10T06:38:27;5.95;;;4.22;;
40827;SDS011;26549;50.918;5.338;2023-04-10T06:40:54;6.00;;;4.22;;
40827;SDS011;26549;50.918;5.338;2023-04-10T06:43:20;5.45;;;4.50;;
40827;SDS011;26549;50.918;5.338;2023-04-10T06:45:46;5.78;;;3.67;;
40827;SDS011;26549;50.918;5.338;2023-04-10T06:48:11;4.70;;;3.50;;
40827;SDS011;26549;50.918;5.338;2023-04-10T06:50:38;6.20;;;4.00;;
40827;SDS011;26549;50.918;5.338;2023-04-10T06:53:04;5.68;;;4.05;;
40827;SDS011;26549;50.918;5.338;2023-04-10T06:55:29;6.93;;;3.63;;
40827;SDS011;26549;50.918;5.338;2023-04-10T06:57:55;6.07;;;3.78;;
40827;SDS011;26549;50.918;5.338;2023-04-10T07:00:21;6.32;;;4.18;;
40827;SDS011;26549;50.918;5.338;2023-04-10T07:02:47;4.28;;;3.88;;
40827;SDS011;26549;50.918;5.338;2023-04-10T07:05:14;5.20;;;3.70;;
40827;SDS011;26549;50.918;5.338;2023-04-10T07:07:40;10.50;;;4.20;;
40827;SDS011;26549;50.918;5.338;2023-04-10T07:10:06;6.28;;;4.07;;
40827;SDS011;26549;50.918;5.338;2023-04-10T07:12:33;4.63;;;3.50;;
40827;SDS011;26549;50.918;5.338;2023-04-10T07:15:00;5.10;;;3.78;;
40827;SDS011;26549;50.918;5.338;2023-04-10T07:17:27;5.00;;;3.92;;
40827;SDS011;26549;50.918;5.338;2023-04-10T07:19:54;4.70;;;3.72;;
40827;SDS011;26549;50.918;5.338;2023-04-10T07:22:20;4.75;;;3.67;;
40827;SDS011;26549;50.918;5.338;2023-04-10T07:24:47;4.35;;;3.63;;
40827;SDS011;26549;50.918;5.338;2023-04-10T07:27:13;6.95;;;4.43;;
40827;SDS011;26549;50.918;5.338;2023-04-10T07:29:39;6.07;;;4.35;;
40827;SDS011;26549;50.918;5.338;2023-04-10T07:32:06;5.72;;;4.20;;
40827;SDS011;26549;50.918;5.338;2023-04-10T07:34:31;5.25;;;3.88;;
40827;SDS011;26549;50.918;5.338;2023-04-10T07:36:58;6.45;;;4.57;;
40827;SDS011;26549;50.918;5.338;2023-04-10T07:39:24;4.60;;;3.17;;
40827;SDS011;26549;50.918;5.338;2023-04-10T07:41:51;5.22;;;3.83;;
40827;SDS011;26549;50.918;5.338;2023-04-10T07:44:18;6.05;;;4.30;;
40827;SDS011;26549;50.918;5.338;2023-04-10T07:46:44;6.68;;;4.28;;
40827;SDS011;26549;50.918;5.338;2023-04-10T07:49:10;7.65;;;4.05;;
40827;SDS011;26549;50.918;5.338;2023-04-10T07:51:36;7.00;;;4.30;;
40827;SDS011;26549;50.918;5.338;2023-04-10T07:54:02;5.72;;;3.78;;
40827;SDS011;26549;50.918;5.338;2023-04-10T07:56:28;5.57;;;4.20;;
40827;SDS011;26549;50.918;5.338;2023-04-10T07:58:58;5.43;;;4.00;;
40827;SDS011;26549;50.918;5.338;2023-04-10T08:01:27;4.82;;;3.78;;
40827;SDS011;26549;50.918;5.338;2023-04-10T08:03:53;5.97;;;4.32;;
40827;SDS011;26549;50.918;5.338;2023-04-10T08:06:20;6.68;;;4.05;;
40827;SDS011;26549;50.918;5.338;2023-04-10T08:08:46;4.70;;;3.72;;
40827;SDS011;26549;50.918;5.338;2023-04-10T08:11:28;5.18;;;3.80;;
40827;SDS011;26549;50.918;5.338;2023-04-10T08:14:00;8.30;;;4.65;;
40827;SDS011;26549;50.918;5.338;2023-04-10T08:16:31;5.93;;;4.40;;
40827;SDS011;26549;50.918;5.338;2023-04-10T08:18:58;5.40;;;3.75;;
40827;SDS011;26549;50.918;5.338;2023-04-10T08:21:25;7.00;;;4.50;;
40827;SDS011;26549;50.918;5.338;2023-04-10T08:23:56;6.03;;;4.03;;
40827;SDS011;26549;50.918;5.338;2023-04-10T08:26:23;4.93;;;3.90;;
40827;SDS011;26549;50.918;5.338;2023-04-10T08:28:50;5.90;;;3.70;;
40827;SDS011;26549;50.918;5.338;2023-04-10T08:31:18;6.22;;;3.92;;
40827;SDS011;26549;50.918;5.338;2023-04-10T08:33:45;6.25;;;3.60;;
40827;SDS011;26549;50.918;5.338;2023-04-10T08:36:11;4.05;;;3.08;;
40827;SDS011;26549;50.918;5.338;2023-04-10T08:38:39;4.70;;;3.53;;
40827;SDS011;26549;50.918;5.338;2023-04-10T08:41:10;4.95;;;3.72;;
40827;SDS011;26549;50.918;5.338;2023-04-10T08:43:37;4.82;;;3.75;;
40827;SDS011;26549;50.918;5.338;2023-04-10T08:46:02;5.57;;;3.55;;
40827;SDS011;26549;50.918;5.338;2023-04-10T08:48:38;6.30;;;3.90;;
40827;SDS011;26549;50.918;5.338;2023-04-10T08:51:09;5.80;;;3.90;;
40827;SDS011;26549;50.918;5.338;2023-04-10T08:53:42;6.00;;;3.60;;
40827;SDS011;26549;50.918;5.338;2023-04-10T08:56:10;3.88;;;3.00;;
40827;SDS011;26549;50.918;5.338;2023-04-10T08:58:38;3.92;;;3.42;;
40827;SDS011;26549;50.918;5.338;2023-04-10T09:01:05;3.67;;;3.20;;
40827;SDS011;26549;50.918;5.338;2023-04-10T09:03:33;4.50;;;3.75;;
40827;SDS011;26549;50.918;5.338;2023-04-10T09:06:02;5.05;;;3.28;;
40827;SDS011;26549;50.918;5.338;2023-04-10T09:08:28;3.97;;;3.20;;
40827;SDS011;26549;50.918;5.338;2023-04-10T09:10:54;3.88;;;3.40;;
40827;SDS011;26549;50.918;5.338;2023-04-10T09:16:06;6.40;;;3.70;;
40827;SDS011;26549;50.918;5.338;2023-04-10T09:18:43;6.32;;;3.15;;
40827;SDS011;26549;50.918;5.338;2023-04-10T09:21:14;5.32;;;3.58;;
40827;SDS011;26549;50.918;5.338;2023-04-10T09:23:43;9.02;;;3.90;;
40827;SDS011;26549;50.918;5.338;2023-04-10T09:29:02;4.45;;;3.88;;
40827;SDS011;26549;50.918;5.338;2023-04-10T09:31:30;3.97;;;3.35;;
40827;SDS011;26549;50.918;5.338;2023-04-10T09:34:07;4.03;;;3.20;;
40827;SDS011;26549;50.918;5.338;2023-04-10T09:36:43;5.45;;;3.92;;
40827;SDS011;26549;50.918;5.338;2023-04-10T09:39:18;3.78;;;3.22;;
40827;SDS011;26549;50.918;5.338;2023-04-10T09:44:17;4.30;;;3.65;;
40827;SDS011;26549;50.918;5.338;2023-04-10T09:46:52;4.45;;;3.63;;
40827;SDS011;26549;50.918;5.338;2023-04-10T09:49:18;6.35;;;3.75;;
40827;SDS011;26549;50.918;5.338;2023-04-10T09:51:44;3.47;;;2.78;;
40827;SDS011;26549;50.918;5.338;2023-04-10T09:54:11;3.28;;;2.92;;
40827;SDS011;26549;50.918;5.338;2023-04-10T09:56:39;5.53;;;3.00;;
40827;SDS011;26549;50.918;5.338;2023-04-10T09:59:07;5.60;;;3.72;;
40827;SDS011;26549;50.918;5.338;2023-04-10T10:01:33;3.58;;;2.60;;
40827;SDS011;26549;50.918;5.338;2023-04-10T10:04:03;2.80;;;2.58;;
40827;SDS011;26549;50.918;5.338;2023-04-10T10:06:30;3.33;;;3.03;;
40827;SDS011;26549;50.918;5.338;2023-04-10T10:09:00;3.25;;;2.63;;
40827;SDS011;26549;50.918;5.338;2023-04-10T10:11:31;5.32;;;3.05;;
40827;SDS011;26549;50.918;5.338;2023-04-10T10:13:59;5.55;;;2.63;;
40827;SDS011;26549;50.918;5.338;2023-04-10T10:16:34;3.28;;;2.85;;
40827;SDS011;26549;50.918;5.338;2023-04-10T10:19:19;3.50;;;2.65;;
40827;SDS011;26549;50.918;5.338;2023-04-10T10:21:51;3.83;;;2.88;;
40827;SDS011;26549;50.918;5.338;2023-04-10T10:24:18;4.00;;;3.42;;
40827;SDS011;26549;50.918;5.338;2023-04-10T10:26:45;3.40;;;2.78;;
40827;SDS011;26549;50.918;5.338;2023-04-10T10:29:11;3.78;;;2.90;;
40827;SDS011;26549;50.918;5.338;2023-04-10T10:31:41;4.95;;;2.60;;
40827;SDS011;26549;50.918;5.338;2023-04-10T10:34:07;4.72;;;2.80;;
40827;SDS011;26549;50.918;5.338;2023-04-10T10:36:34;3.38;;;2.67;;
40827;SDS011;26549;50.918;5.338;2023-04-10T10:39:08;3.63;;;2.92;;
40827;SDS011;26549;50.918;5.338;2023-04-10T10:44:42;3.13;;;2.55;;
40827;SDS011;26549;50.918;5.338;2023-04-10T10:57:50;3.92;;;2.83;;
40827;SDS011;26549;50.918;5.338;2023-04-10T11:00:17;3.75;;;2.70;;
40827;SDS011;26549;50.918;5.338;2023-04-10T11:06:19;3.85;;;2.58;;
40827;SDS011;26549;50.918;5.338;2023-04-10T11:11:05;3.92;;;2.78;;
40827;SDS011;26549;50.918;5.338;2023-04-10T11:13:36;3.20;;;2.40;;
40827;SDS011;26549;50.918;5.338;2023-04-10T11:16:04;2.65;;;2.38;;
40827;SDS011;26549;50.918;5.338;2023-04-10T11:24:01;3.10;;;1.95;;
40827;SDS011;26549;50.918;5.338;2023-04-10T11:26:34;7.00;;;1.90;;
40827;SDS011;26549;50.918;5.338;2023-04-10T11:31:44;2.53;;;1.77;;
40827;SDS011;26549;50.918;5.338;2023-04-10T11:34:20;4.82;;;1.90;;
40827;SDS011;26549;50.918;5.338;2023-04-10T11:36:46;3.85;;;2.00;;
40827;SDS011;26549;50.918;5.338;2023-04-10T11:39:12;2.95;;;2.30;;
40827;SDS011;26549;50.918;5.338;2023-04-10T11:41:43;1.63;;;1.40;;
40827;SDS011;26549;50.918;5.338;2023-04-10T11:44:11;2.58;;;1.50;;
40827;SDS011;26549;50.918;5.338;2023-04-10T11:46:41;3.13;;;1.60;;
40827;SDS011;26549;50.918;5.338;2023-04-10T11:49:18;3.13;;;2.30;;
40827;SDS011;26549;50.918;5.338;2023-04-10T11:51:46;3.30;;;1.77;;
40827;SDS011;26549;50.918;5.338;2023-04-10T11:54:17;2.80;;;1.48;;
40827;SDS011;26549;50.918;5.338;2023-04-10T11:59:27;2.05;;;1.63;;
40827;SDS011;26549;50.918;5.338;2023-04-10T12:02:04;5.18;;;1.77;;
40827;SDS011;26549;50.918;5.338;2023-04-10T12:04:30;2.22;;;1.75;;
40827;SDS011;26549;50.918;5.338;2023-04-10T12:06:56;3.63;;;2.33;;
40827;SDS011;26549;50.918;5.338;2023-04-10T12:09:22;2.72;;;1.48;;
40827;SDS011;26549;50.918;5.338;2023-04-10T12:14:18;1.85;;;1.50;;
40827;SDS011;26549;50.918;5.338;2023-04-10T12:16:45;5.85;;;2.03;;
40827;SDS011;26549;50.918;5.338;2023-04-10T12:19:12;1.88;;;1.40;;
40827;SDS011;26549;50.918;5.338;2023-04-10T12:21:38;1.90;;;1.70;;
40827;SDS011;26549;50.918;5.338;2023-04-10T12:24:08;12.55;;;2.25;;
40827;SDS011;26549;50.918;5.338;2023-04-10T12:26:34;4.20;;;1.58;;
40827;SDS011;26549;50.918;5.338;2023-04-10T12:29:00;3.00;;;1.58;;
40827;SDS011;26549;50.918;5.338;2023-04-10T12:31:26;1.77;;;1.42;;
40827;SDS011;26549;50.918;5.338;2023-04-10T12:33:59;3.78;;;2.25;;
40827;SDS011;26549;50.918;5.338;2023-04-10T12:36:27;3.28;;;1.58;;
40827;SDS011;26549;50.918;5.338;2023-04-10T12:38:57;3.20;;;1.65;;
40827;SDS011;26549;50.918;5.338;2023-04-10T12:41:28;3.72;;;1.50;;
40827;SDS011;26549;50.918;5.338;2023-04-10T12:44:08;3.22;;;1.83;;
40827;SDS011;26549;50.918;5.338;2023-04-10T12:46:36;2.58;;;1.27;;
40827;SDS011;26549;50.918;5.338;2023-04-10T12:49:09;6.53;;;1.48;;
40827;SDS011;26549;50.918;5.338;2023-04-10T12:54:09;2.00;;;1.80;;
40827;SDS011;26549;50.918;5.338;2023-04-10T12:56:42;1.73;;;1.40;;
40827;SDS011;26549;50.918;5.338;2023-04-10T12:59:08;3.20;;;1.27;;
40827;SDS011;26549;50.918;5.338;2023-04-10T13:01:37;4.40;;;1.90;;
40827;SDS011;26549;50.918;5.338;2023-04-10T13:04:03;1.48;;;1.38;;
40827;SDS011;26549;50.918;5.338;2023-04-10T13:06:29;1.55;;;1.40;;
40827;SDS011;26549;50.918;5.338;2023-04-10T13:08:55;1.63;;;1.50;;
40827;SDS011;26549;50.918;5.338;2023-04-10T13:11:21;1.63;;;1.27;;
40827;SDS011;26549;50.918;5.338;2023-04-10T13:13:47;1.50;;;1.35;;
40827;SDS011;26549;50.918;5.338;2023-04-10T13:16:14;2.13;;;1.40;;
40827;SDS011;26549;50.918;5.338;2023-04-10T13:18:40;1.65;;;1.40;;
40827;SDS011;26549;50.918;5.338;2023-04-10T13:21:07;3.63;;;1.58;;
40827;SDS011;26549;50.918;5.338;2023-04-10T13:23:34;2.88;;;1.42;;
40827;SDS011;26549;50.918;5.338;2023-04-10T13:26:00;1.40;;;1.30;;
40827;SDS011;26549;50.918;5.338;2023-04-10T13:28:26;1.50;;;1.33;;
40827;SDS011;26549;50.918;5.338;2023-04-10T13:30:51;1.80;;;1.38;;
40827;SDS011;26549;50.918;5.338;2023-04-10T13:33:17;2.10;;;1.20;;
40827;SDS011;26549;50.918;5.338;2023-04-10T13:35:43;1.30;;;1.20;;
40827;SDS011;26549;50.918;5.338;2023-04-10T13:38:08;2.63;;;1.77;;
40827;SDS011;26549;50.918;5.338;2023-04-10T13:40:35;1.50;;;1.40;;
40827;SDS011;26549;50.918;5.338;2023-04-10T13:43:02;1.90;;;1.50;;
40827;SDS011;26549;50.918;5.338;2023-04-10T13:45:27;1.30;;;1.20;;
40827;SDS011;26549;50.918;5.338;2023-04-10T13:47:53;2.22;;;1.73;;
40827;SDS011;26549;50.918;5.338;2023-04-10T13:50:19;1.83;;;1.25;;
40827;SDS011;26549;50.918;5.338;2023-04-10T13:52:45;2.00;;;1.52;;
40827;SDS011;26549;50.918;5.338;2023-04-10T13:55:10;4.90;;;1.48;;
40827;SDS011;26549;50.918;5.338;2023-04-10T13:57:37;1.85;;;1.58;;
40827;SDS011;26549;50.918;5.338;2023-04-10T14:00:02;2.58;;;1.70;;
40827;SDS011;26549;50.918;5.338;2023-04-10T14:02:29;1.90;;;1.50;;
40827;SDS011;26549;50.918;5.338;2023-04-10T14:04:54;1.65;;;1.55;;
40827;SDS011;26549;50.918;5.338;2023-04-10T14:07:20;1.90;;;1.65;;
40827;SDS011;26549;50.918;5.338;2023-04-10T14:09:46;3.30;;;1.92;;
40827;SDS011;26549;50.918;5.338;2023-04-10T14:12:12;2.17;;;1.90;;
40827;SDS011;26549;50.918;5.338;2023-04-10T14:14:40;3.03;;;1.60;;
40827;SDS011;26549;50.918;5.338;2023-04-10T14:17:06;2.70;;;1.70;;
40827;SDS011;26549;50.918;5.338;2023-04-10T14:19:32;1.85;;;1.48;;
40827;SDS011;26549;50.918;5.338;2023-04-10T14:21:59;4.07;;;2.22;;
40827;SDS011;26549;50.918;5.338;2023-04-10T14:24:25;3.17;;;1.70;;
40827;SDS011;26549;50.918;5.338;2023-04-10T14:26:50;2.78;;;1.90;;
40827;SDS011;26549;50.918;5.338;2023-04-10T14:29:17;2.10;;;1.90;;
40827;SDS011;26549;50.918;5.338;2023-04-10T14:31:43;2.78;;;1.88;;
40827;SDS011;26549;50.918;5.338;2023-04-10T14:34:09;2.17;;;1.75;;
40827;SDS011;26549;50.918;5.338;2023-04-10T14:36:34;3.47;;;1.88;;
40827;SDS011;26549;50.918;5.338;2023-04-10T14:39:00;3.45;;;1.80;;
40827;SDS011;26549;50.918;5.338;2023-04-10T14:41:26;2.00;;;1.80;;
40827;SDS011;26549;50.918;5.338;2023-04-10T14:43:52;2.97;;;2.20;;
40827;SDS011;26549;50.918;5.338;2023-04-10T14:46:18;1.90;;;1.77;;
40827;SDS011;26549;50.918;5.338;2023-04-10T14:48:44;1.75;;;1.45;;
40827;SDS011;26549;50.918;5.338;2023-04-10T14:51:10;6.07;;;1.50;;
40827;SDS011;26549;50.918;5.338;2023-04-10T14:53:37;2.10;;;1.20;;
40827;SDS011;26549;50.918;5.338;2023-04-10T14:56:10;2.10;;;1.60;;
40827;SDS011;26549;50.918;5.338;2023-04-10T14:58:36;2.80;;;1.63;;
40827;SDS011;26549;50.918;5.338;2023-04-10T15:01:02;2.00;;;1.60;;
40827;SDS011;26549;50.918;5.338;2023-04-10T15:03:28;1.63;;;1.42;;
40827;SDS011;26549;50.918;5.338;2023-04-10T15:06:00;2.00;;;1.75;;
40827;SDS011;26549;50.918;5.338;2023-04-10T15:08:26;3.72;;;1.88;;
40827;SDS011;26549;50.918;5.338;2023-04-10T15:10:51;1.83;;;1.45;;
40827;SDS011;26549;50.918;5.338;2023-04-10T15:13:20;2.10;;;1.70;;
40827;SDS011;26549;50.918;5.338;2023-04-10T15:15:47;2.17;;;1.60;;
40827;SDS011;26549;50.918;5.338;2023-04-10T15:18:14;1.70;;;1.60;;
40827;SDS011;26549;50.918;5.338;2023-04-10T15:20:40;1.75;;;1.58;;
40827;SDS011;26549;50.918;5.338;2023-04-10T15:23:06;2.85;;;1.63;;
40827;SDS011;26549;50.918;5.338;2023-04-10T15:25:32;6.93;;;3.60;;
40827;SDS011;26549;50.918;5.338;2023-04-10T15:27:58;2.35;;;1.50;;
40827;SDS011;26549;50.918;5.338;2023-04-10T15:30:24;3.53;;;1.95;;
40827;SDS011;26549;50.918;5.338;2023-04-10T15:32:50;1.88;;;1.55;;
40827;SDS011;26549;50.918;5.338;2023-04-10T15:35:16;2.42;;;1.27;;
40827;SDS011;26549;50.918;5.338;2023-04-10T15:37:42;7.35;;;1.92;;